Time;durP1;ratioP1;P1;durP2;ratioP2;P2;SDS_P1;SDS_P2;PMS_P1;PMS_P2;Temp;Humidity;BMP_temperature;BMP_pressure;BME280_temperature;BME280_humidity;BME280_pressure;Samples;Min_cycle;Max_cycle;Signal;HPM_P1;HPM_P2
2023/11/28 00:02:03;;;;;;;2.72;1.33;;;15.50;70.50;;;;;;10410221;28;20032;-57
2023/11/28 00:07:04;;;;;;;0.68;0.50;;;15.50;70.50;;;;;;10409744;28;20065;-57
2023/11/28 00:12:05;;;;;;;1.45;0.70;;;15.40;70.40;;;;;;10409553;28;20037;-57
2023/11/28 00:17:06;;;;;;;1.40;0.80;;;15.50;70.50;;;;;;10409359;28;20489;-57
2023/11/28 00:22:06;;;;;;;0.93;0.60;;;15.40;70.40;;;;;;10409345;28;20056;-56
2023/11/28 00:27:08;;;;;;;0.90;0.80;;;15.40;70.50;;;;;;10408952;28;20038;-56
2023/11/28 00:32:09;;;;;;;0.73;0.63;;;15.40;70.40;;;;;;10396648;28;20072;-57
2023/11/28 00:37:10;;;;;;;0.98;0.55;;;15.40;70.40;;;;;;10380941;28;20026;-57
2023/11/28 00:42:12;;;;;;;0.52;0.52;;;15.40;70.30;;;;;;10393462;28;20025;-59
2023/11/28 00:47:12;;;;;;;2.00;0.63;;;15.40;70.40;;;;;;10408346;28;20032;-56
2023/11/28 00:52:13;;;;;;;0.95;0.65;;;15.30;70.30;;;;;;10407267;28;20045;-57
2023/11/28 00:57:14;;;;;;;1.70;0.70;;;15.40;70.30;;;;;;10407959;28;20032;-56
2023/11/28 01:02:15;;;;;;;1.52;0.60;;;15.30;70.30;;;;;;10408617;28;20038;-56
2023/11/28 01:07:16;;;;;;;1.05;0.70;;;15.30;70.30;;;;;;10407948;28;20112;-57
2023/11/28 01:12:17;;;;;;;1.27;0.90;;;15.30;70.20;;;;;;10408114;28;20040;-56
2023/11/28 01:17:17;;;;;;;1.10;0.77;;;15.30;70.30;;;;;;10387857;28;20093;-56
2023/11/28 01:22:18;;;;;;;1.08;0.60;;;15.30;70.20;;;;;;10365956;28;20044;-56
2023/11/28 01:27:19;;;;;;;0.73;0.40;;;15.30;70.20;;;;;;10366804;28;20519;-57
2023/11/28 01:32:20;;;;;;;1.30;0.70;;;15.30;70.10;;;;;;10383715;28;20041;-56
2023/11/28 01:37:21;;;;;;;0.93;0.50;;;15.20;70.10;;;;;;10386531;28;20432;-57
2023/11/28 01:42:22;;;;;;;0.70;0.50;;;15.30;70.10;;;;;;10386198;28;20520;-57
2023/11/28 01:47:23;;;;;;;1.13;0.85;;;15.20;70.00;;;;;;10414889;28;20035;-56
2023/11/28 01:52:23;;;;;;;0.80;0.43;;;15.20;70.10;;;;;;10415174;28;20033;-56
2023/11/28 01:57:24;;;;;;;1.63;0.88;;;15.20;70.10;;;;;;10414559;28;20030;-57
2023/11/28 02:02:27;;;;;;;1.05;0.70;;;15.20;70.00;;;;;;10400449;28;20034;-57
2023/11/28 02:07:28;;;;;;;1.00;0.50;;;15.20;70.10;;;;;;10414238;28;20029;-56
2023/11/28 02:12:29;;;;;;;2.10;0.77;;;15.20;70.00;;;;;;10414299;28;20029;-57
2023/11/28 02:17:29;;;;;;;0.60;0.60;;;15.20;70.10;;;;;;10413777;28;20496;-57
2023/11/28 02:22:31;;;;;;;0.93;0.50;;;15.10;70.00;;;;;;10414041;28;20033;-57
2023/11/28 02:27:31;;;;;;;1.20;0.70;;;15.10;70.00;;;;;;10413653;28;20026;-57
2023/11/28 02:32:32;;;;;;;1.30;0.60;;;15.10;70.00;;;;;;10398689;28;20030;-56
2023/11/28 02:37:33;;;;;;;1.08;0.63;;;15.10;70.00;;;;;;10371042;28;20540;-56
2023/11/28 02:42:33;;;;;;;1.13;0.70;;;15.10;70.00;;;;;;10385352;28;20026;-56
2023/11/28 02:47:34;;;;;;;0.43;0.40;;;15.10;69.90;;;;;;10385241;28;20026;-56
2023/11/28 02:52:39;;;;;;;0.65;0.52;;;15.10;69.90;;;;;;10372048;28;20095;-56
2023/11/28 02:57:40;;;;;;;0.75;0.43;;;15.10;70.00;;;;;;10370333;28;20485;-57
2023/11/28 03:02:41;;;;;;;1.38;0.73;;;15.10;69.80;;;;;;10371913;28;20030;-56
2023/11/28 03:07:42;;;;;;;2.63;1.00;;;15.10;69.80;;;;;;10383129;28;20040;-56
2023/11/28 03:12:43;;;;;;;1.10;0.60;;;15.00;69.80;;;;;;10371273;28;20373;-57
2023/11/28 03:17:43;;;;;;;1.15;0.70;;;15.00;69.80;;;;;;10382482;28;20036;-57
2023/11/28 03:22:44;;;;;;;1.23;0.75;;;15.00;69.70;;;;;;10370917;28;20030;-56
2023/11/28 03:27:45;;;;;;;1.00;0.70;;;15.00;69.70;;;;;;10370597;28;20034;-55
2023/11/28 03:32:45;;;;;;;1.23;0.73;;;15.00;69.70;;;;;;10388380;28;20030;-55
2023/11/28 03:37:46;;;;;;;1.13;0.60;;;15.00;69.70;;;;;;10379364;28;20021;-54
2023/11/28 03:42:47;;;;;;;1.15;0.50;;;15.00;69.60;;;;;;10408348;28;20488;-56
2023/11/28 03:47:48;;;;;;;1.20;0.73;;;15.00;69.60;;;;;;10410497;28;20034;-56
2023/11/28 03:52:48;;;;;;;0.70;0.57;;;14.90;69.60;;;;;;10410604;28;20048;-57
2023/11/28 03:57:50;;;;;;;2.78;0.70;;;14.90;69.60;;;;;;10407929;28;20028;-57
2023/11/28 04:02:51;;;;;;;0.88;0.63;;;14.90;69.60;;;;;;10395855;28;20032;-56
2023/11/28 04:07:51;;;;;;;1.33;0.82;;;14.90;69.60;;;;;;10409858;28;20052;-55
2023/11/28 04:12:53;;;;;;;0.93;0.60;;;14.90;69.50;;;;;;10409816;28;20030;-57
2023/11/28 04:17:54;;;;;;;0.80;0.57;;;14.90;69.60;;;;;;10394385;28;20032;-57
2023/11/28 04:22:54;;;;;;;1.10;0.60;;;14.80;69.50;;;;;;10372273;28;20404;-57
2023/11/28 04:27:55;;;;;;;1.27;0.60;;;14.80;69.50;;;;;;10382382;28;20457;-56
2023/11/28 04:32:56;;;;;;;0.73;0.38;;;14.90;69.90;;;;;;10381088;28;20092;-56
2023/11/28 04:37:57;;;;;;;0.88;0.63;;;14.90;70.10;;;;;;10382845;28;20545;-56
2023/11/28 04:42:57;;;;;;;1.40;0.80;;;15.00;71.40;;;;;;10378127;28;20292;-54
2023/11/28 04:47:58;;;;;;;1.70;0.95;;;15.00;70.80;;;;;;10378033;28;20218;-56
2023/11/28 04:52:59;;;;;;;1.10;0.70;;;15.00;70.70;;;;;;10380325;28;20416;-55
2023/11/28 04:58:00;;;;;;;1.77;1.10;;;15.00;70.80;;;;;;10390175;28;20026;-55
2023/11/28 05:03:01;;;;;;;1.45;1.00;;;15.00;70.60;;;;;;10379131;28;20033;-55
2023/11/28 05:08:01;;;;;;;2.67;1.10;;;14.90;70.60;;;;;;10409952;28;20041;-55
2023/11/28 05:13:04;;;;;;;1.42;1.00;;;14.90;70.60;;;;;;10413748;28;20485;-55
2023/11/28 05:18:05;;;;;;;1.63;0.82;;;14.90;70.60;;;;;;10413375;28;20025;-55
2023/11/28 05:23:06;;;;;;;1.27;0.90;;;15.00;70.40;;;;;;10413491;28;20041;-55
2023/11/28 05:28:06;;;;;;;1.02;0.93;;;15.20;70.30;;;;;;10412943;28;20489;-55
2023/11/28 05:33:07;;;;;;;1.60;1.23;;;15.40;69.70;;;;;;10406189;28;20503;-54
2023/11/28 05:38:08;;;;;;;1.00;0.90;;;15.40;69.30;;;;;;10388333;28;20437;-54
2023/11/28 05:43:09;;;;;;;1.33;0.80;;;15.50;69.00;;;;;;10390236;28;20033;-55
2023/11/28 05:48:10;;;;;;;1.20;0.80;;;15.60;68.70;;;;;;10403932;28;20033;-55
2023/11/28 05:53:10;;;;;;;1.75;0.90;;;15.70;68.40;;;;;;10412150;28;20049;-56
2023/11/28 05:58:12;;;;;;;0.70;0.60;;;15.80;68.00;;;;;;10412303;28;20318;-55
2023/11/28 06:03:13;;;;;;;1.50;0.80;;;15.90;67.70;;;;;;10397157;28;20171;-56
2023/11/28 06:08:13;;;;;;;3.38;1.13;;;16.00;67.90;;;;;;10410506;28;20022;-54
2023/11/28 06:13:14;;;;;;;7.97;1.08;;;16.00;67.70;;;;;;10410948;28;20033;-56
2023/11/28 06:18:15;;;;;;;4.18;1.25;;;16.10;67.70;;;;;;10410408;28;20029;-55
2023/11/28 06:23:18;;;;;;;14.38;2.20;;;16.20;67.50;;;;;;10396838;28;20034;-57
2023/11/28 06:28:18;;;;;;;8.30;1.27;;;16.20;68.10;;;;;;10410837;28;20083;-58
2023/11/28 06:33:19;;;;;;;13.43;1.88;;;16.20;68.30;;;;;;10387341;28;20440;-56
2023/11/28 06:38:20;;;;;;;6.25;1.33;;;16.30;68.30;;;;;;10369797;28;20022;-58
2023/11/28 06:43:21;;;;;;;6.30;1.33;;;16.40;67.60;;;;;;10388794;28;20033;-57
2023/11/28 06:48:21;;;;;;;12.88;1.95;;;16.40;67.40;;;;;;10410621;28;20037;-57
2023/11/28 06:53:22;;;;;;;11.63;1.95;;;16.40;67.20;;;;;;10394849;28;20052;-57
2023/11/28 06:58:23;;;;;;;4.07;0.80;;;16.50;66.80;;;;;;10408702;28;20033;-57
2023/11/28 07:03:23;;;;;;;7.55;1.20;;;16.50;66.40;;;;;;10381173;28;20034;-56
2023/11/28 07:08:24;;;;;;;9.52;1.35;;;16.70;66.10;;;;;;10406341;28;20040;-57
2023/11/28 07:13:25;;;;;;;7.68;1.27;;;16.70;65.50;;;;;;10409247;28;20022;-58
2023/11/28 07:18:25;;;;;;;4.00;0.80;;;16.50;65.80;;;;;;10411439;28;20108;-58
2023/11/28 07:23:29;;;;;;;9.52;1.65;;;16.60;65.30;;;;;;10376996;28;20048;-55
2023/11/28 07:28:30;;;;;;;4.82;1.20;;;16.70;65.00;;;;;;10369380;28;20044;-58
2023/11/28 07:33:31;;;;;;;4.30;1.33;;;16.70;65.30;;;;;;10400218;28;20112;-58
2023/11/28 07:38:32;;;;;;;7.53;1.40;;;16.70;64.60;;;;;;10410895;28;20029;-57
2023/11/28 07:43:35;;;;;;;8.45;0.90;;;16.70;64.50;;;;;;10407355;28;20033;-57
2023/11/28 07:48:36;;;;;;;4.25;1.08;;;16.70;64.30;;;;;;10409767;28;20041;-57
2023/11/28 07:53:37;;;;;;;4.07;1.30;;;16.80;64.20;;;;;;10408845;28;20044;-58
2023/11/28 07:58:38;;;;;;;4.15;0.70;;;16.70;64.30;;;;;;10409404;28;20377;-56
2023/11/28 08:03:39;;;;;;;4.18;0.93;;;16.80;64.00;;;;;;10409170;28;20465;-57
2023/11/28 08:08:40;;;;;;;3.47;0.80;;;16.80;63.80;;;;;;10408661;28;20036;-57
2023/11/28 08:13:40;;;;;;;4.75;0.85;;;16.80;63.70;;;;;;10408509;28;20038;-55
2023/11/28 08:18:41;;;;;;;2.75;0.70;;;16.90;63.60;;;;;;10408689;28;20025;-57
2023/11/28 08:23:43;;;;;;;4.20;0.80;;;16.90;63.50;;;;;;10407992;28;20029;-57
2023/11/28 08:28:44;;;;;;;2.72;0.77;;;16.90;63.20;;;;;;10394518;28;20025;-57
2023/11/28 08:33:45;;;;;;;3.40;0.88;;;16.90;63.40;;;;;;10381568;28;20037;-56
2023/11/28 08:38:45;;;;;;;3.20;0.85;;;16.90;63.20;;;;;;10366103;28;20039;-57
2023/11/28 08:43:46;;;;;;;1.77;0.50;;;16.90;63.20;;;;;;10399839;28;20029;-57
2023/11/28 08:48:48;;;;;;;1.20;0.40;;;16.90;62.90;;;;;;10397322;28;20095;-56
2023/11/28 08:53:50;;;;;;;1.17;0.40;;;16.90;62.90;;;;;;10378862;28;20045;-56
2023/11/28 08:58:53;;;;;;;1.52;0.52;;;16.90;63.00;;;;;;10367515;28;20038;-56
2023/11/28 09:03:54;;;;;;;2.47;0.47;;;16.90;63.10;;;;;;10364858;28;20096;-57
2023/11/28 09:08:55;;;;;;;0.98;0.38;;;16.90;64.10;;;;;;10366596;28;20492;-57
2023/11/28 09:13:55;;;;;;;1.98;0.55;;;16.90;63.80;;;;;;10366206;28;20045;-57
2023/11/28 09:18:56;;;;;;;1.02;0.38;;;16.90;63.30;;;;;;10366587;28;20048;-57
2023/11/28 09:23:57;;;;;;;1.33;0.40;;;17.00;64.10;;;;;;10366178;28;20025;-56
2023/11/28 09:28:59;;;;;;;1.45;0.35;;;17.00;64.30;;;;;;10371008;28;20037;-56
2023/11/28 09:33:59;;;;;;;1.42;0.40;;;17.10;63.80;;;;;;10377053;28;20559;-57
2023/11/28 09:39:03;;;;;;;1.63;0.30;;;17.10;64.40;;;;;;10366442;28;20030;-56
2023/11/28 09:44:08;;;;;;;1.23;0.50;;;17.20;64.40;;;;;;10391602;28;20489;-57
2023/11/28 09:49:10;;;;;;;1.17;0.40;;;17.30;64.50;;;;;;10407255;28;20549;-57
2023/11/28 09:54:13;;;;;;;2.45;0.50;;;17.20;64.60;;;;;;10394523;28;20120;-56
2023/11/28 09:59:15;;;;;;;1.58;0.50;;;17.20;64.70;;;;;;10399859;28;20389;-57
2023/11/28 10:04:16;;;;;;;0.80;0.30;;;17.20;64.70;;;;;;10413556;28;20155;-57
2023/11/28 10:09:17;;;;;;;4.78;0.80;;;17.20;64.90;;;;;;10413855;28;20042;-57
2023/11/28 10:14:17;;;;;;;1.65;0.90;;;17.10;65.10;;;;;;10412942;28;20033;-57
2023/11/28 10:19:18;;;;;;;1.00;0.60;;;17.00;65.40;;;;;;10413320;28;20033;-57
2023/11/28 10:24:21;;;;;;;1.70;0.60;;;17.00;65.70;;;;;;10412837;28;20030;-55
2023/11/28 10:29:21;;;;;;;1.52;0.55;;;16.80;66.20;;;;;;10418295;28;20528;-57
2023/11/28 10:34:22;;;;;;;1.15;0.55;;;16.70;66.60;;;;;;10376597;28;20045;-57
2023/11/28 10:39:23;;;;;;;0.50;0.30;;;16.70;66.60;;;;;;10372007;28;20053;-57
2023/11/28 10:44:24;;;;;;;0.65;0.30;;;16.60;66.60;;;;;;10393974;28;20026;-57
2023/11/28 10:49:25;;;;;;;2.10;0.50;;;16.60;67.30;;;;;;10371726;28;20080;-57
2023/11/28 10:54:33;;;;;;;1.88;0.60;;;16.60;66.70;;;;;;10384885;28;20036;-56
2023/11/28 10:59:42;;;;;;;2.13;0.35;;;16.60;66.80;;;;;;10397662;28;20026;-57
2023/11/28 11:04:50;;;;;;;1.88;0.60;;;16.60;67.00;;;;;;10412011;28;20044;-56
2023/11/28 11:09:51;;;;;;;0.85;0.57;;;16.60;67.50;;;;;;10412300;28;20036;-56
2023/11/28 11:15:28;;;;;;;0.60;0.40;;;16.60;68.90;;;;;;10375161;28;20034;-54
2023/11/28 11:20:30;;;;;;;1.00;0.60;;;16.60;67.90;;;;;;10382441;28;20041;-57
2023/11/28 11:25:41;;;;;;;2.35;0.50;;;16.60;68.40;;;;;;10400630;28;20499;-56
2023/11/28 11:30:42;;;;;;;2.95;0.93;;;16.50;68.60;;;;;;10408586;28;20123;-57
2023/11/28 11:36:14;;;;;;;3.08;0.43;;;16.50;69.00;;;;;;10367201;28;20029;-57
2023/11/28 11:41:17;;;;;;;1.42;0.55;;;16.50;69.20;;;;;;10386846;28;20025;-55
2023/11/28 11:46:17;;;;;;;1.83;0.50;;;16.40;69.20;;;;;;10390516;28;20028;-56
2023/11/28 11:51:18;;;;;;;1.00;0.43;;;16.30;69.70;;;;;;10388282;28;20038;-56
2023/11/28 11:56:20;;;;;;;1.60;0.73;;;16.30;69.80;;;;;;10385458;28;20052;-57
2023/11/28 12:01:21;;;;;;;1.35;0.40;;;16.20;70.20;;;;;;10384972;28;20038;-56
2023/11/28 12:06:22;;;;;;;0.85;0.60;;;16.10;70.20;;;;;;10367628;28;20501;-57
2023/11/28 12:11:23;;;;;;;2.15;0.60;;;16.10;70.20;;;;;;10378357;28;20038;-57
2023/11/28 12:16:25;;;;;;;2.20;0.60;;;16.10;70.00;;;;;;10408880;28;20469;-57
2023/11/28 12:21:25;;;;;;;1.33;0.75;;;16.00;70.10;;;;;;10407555;28;20128;-56
2023/11/28 12:26:26;;;;;;;2.22;0.60;;;16.00;70.20;;;;;;10407819;28;20041;-56
2023/11/28 12:31:28;;;;;;;6.50;0.60;;;16.00;70.20;;;;;;10393943;28;20030;-57
2023/11/28 12:36:29;;;;;;;0.70;0.50;;;15.90;70.10;;;;;;10366071;28;20505;-57
2023/11/28 12:41:38;;;;;;;1.25;0.50;;;15.90;70.10;;;;;;10383563;28;20033;-57
2023/11/28 12:46:40;;;;;;;1.58;0.40;;;15.80;69.80;;;;;;10405458;28;20029;-57
2023/11/28 12:51:43;;;;;;;1.30;0.52;;;15.80;69.90;;;;;;10392324;28;20537;-57
2023/11/28 12:56:55;;;;;;;0.60;0.38;;;15.70;69.80;;;;;;10401267;28;20030;-57
2023/11/28 13:01:56;;;;;;;2.35;1.27;;;15.80;69.50;;;;;;10367312;28;20057;-55
2023/11/28 13:06:56;;;;;;;0.50;0.30;;;15.80;69.10;;;;;;10364799;28;20033;-56
2023/11/28 13:11:57;;;;;;;1.20;0.50;;;15.90;69.60;;;;;;10366242;28;20053;-57
2023/11/28 13:16:58;;;;;;;1.38;0.60;;;15.90;69.40;;;;;;10374754;28;20041;-58
2023/11/28 13:21:58;;;;;;;8.07;1.27;;;16.00;69.10;;;;;;10370582;28;20036;-57
2023/11/28 13:26:59;;;;;;;3.72;0.75;;;16.00;68.90;;;;;;10402495;28;20484;-57
2023/11/28 13:32:02;;;;;;;4.25;1.10;;;16.10;68.10;;;;;;10405371;28;20539;-56
2023/11/28 13:37:04;;;;;;;6.93;1.23;;;16.10;68.60;;;;;;10374165;28;20041;-58
2023/11/28 13:42:07;;;;;;;8.13;1.23;;;16.20;68.60;;;;;;10383900;28;20030;-58
2023/11/28 13:47:08;;;;;;;11.95;1.63;;;16.20;68.60;;;;;;10414211;28;20026;-59
2023/11/28 13:52:09;;;;;;;15.00;2.55;;;16.10;68.20;;;;;;10415033;28;20041;-58
2023/11/28 13:57:09;;;;;;;23.25;2.75;;;16.30;69.10;;;;;;10373753;28;20500;-58
2023/11/28 14:02:10;;;;;;;17.48;2.05;;;16.30;68.70;;;;;;10398980;28;20026;-58
2023/11/28 14:07:12;;;;;;;10.65;1.92;;;16.30;67.10;;;;;;10373309;28;20034;-58
2023/11/28 14:12:14;;;;;;;18.08;3.03;;;16.30;67.10;;;;;;10372982;28;20414;-57
2023/11/28 14:17:14;;;;;;;15.32;2.53;;;16.30;67.30;;;;;;10353877;28;20037;-58
2023/11/28 14:22:15;;;;;;;10.27;1.83;;;16.30;68.50;;;;;;10395503;28;20033;-60
2023/11/28 14:27:16;;;;;;;14.98;2.08;;;16.30;68.80;;;;;;10376935;28;20048;-59
2023/11/28 14:32:17;;;;;;;22.30;2.58;;;16.30;68.70;;;;;;10389307;28;20409;-59
2023/11/28 14:37:17;;;;;;;7.55;1.98;;;16.40;68.40;;;;;;10379905;28;20049;-62
2023/11/28 14:42:18;;;;;;;12.25;2.38;;;16.40;68.40;;;;;;10383130;28;20461;-59
2023/11/28 14:47:20;;;;;;;7.63;1.80;;;16.50;68.30;;;;;;10389596;28;20500;-58
2023/11/28 14:52:21;;;;;;;10.18;1.30;;;16.50;68.00;;;;;;10402803;28;20079;-62
2023/11/28 14:57:22;;;;;;;14.30;1.80;;;16.50;68.10;;;;;;10376215;28;20769;-57
2023/11/28 15:02:23;;;;;;;5.43;1.35;;;16.50;67.90;;;;;;10371715;28;20507;-55
2023/11/28 15:07:24;;;;;;;6.45;1.83;;;16.30;67.60;;;;;;10383240;28;20061;-57
2023/11/28 15:12:24;;;;;;;13.23;1.63;;;16.30;67.00;;;;;;10402113;28;20037;-59
2023/11/28 15:17:25;;;;;;;11.77;2.17;;;16.30;66.30;;;;;;10387556;28;20030;-57
2023/11/28 15:22:28;;;;;;;16.17;1.80;;;16.40;66.20;;;;;;10384105;28;20413;-57
2023/11/28 15:27:30;;;;;;;18.30;2.55;;;16.40;66.00;;;;;;10369607;28;20548;-58
2023/11/28 15:32:31;;;;;;;15.63;3.33;;;16.30;65.60;;;;;;10395899;28;20107;-57
2023/11/28 15:37:32;;;;;;;10.73;1.88;;;16.40;65.70;;;;;;10376806;28;20026;-56
2023/11/28 15:42:33;;;;;;;8.40;2.03;;;16.30;65.10;;;;;;10395771;28;20037;-57
2023/11/28 15:47:35;;;;;;;7.07;2.28;;;16.30;65.00;;;;;;10410588;28;20025;-57
2023/11/28 15:52:36;;;;;;;5.85;1.85;;;16.20;64.60;;;;;;10407242;28;20048;-56
2023/11/28 15:57:36;;;;;;;7.70;1.63;;;16.20;65.90;;;;;;10383876;28;20040;-55
2023/11/28 16:02:38;;;;;;;7.53;1.80;;;16.20;63.50;;;;;;10409588;28;20037;-55
2023/11/28 16:07:38;;;;;;;10.32;2.80;;;16.20;63.00;;;;;;10407907;28;20038;-57
2023/11/28 16:12:39;;;;;;;3.65;1.45;;;16.20;63.70;;;;;;10408663;28;20056;-56
2023/11/28 16:17:40;;;;;;;6.43;1.50;;;16.20;63.60;;;;;;10405301;28;20037;-56
2023/11/28 16:22:41;;;;;;;3.13;1.23;;;16.10;62.40;;;;;;10406610;28;20032;-56
2023/11/28 16:27:42;;;;;;;5.30;1.52;;;16.20;65.80;;;;;;10405166;28;20080;-55
2023/11/28 16:32:42;;;;;;;4.63;1.52;;;16.20;65.40;;;;;;10390256;28;20045;-55
2023/11/28 16:37:43;;;;;;;5.60;2.08;;;16.30;65.20;;;;;;10365048;28;20026;-56
2023/11/28 16:42:44;;;;;;;5.43;1.90;;;16.30;64.80;;;;;;10380539;28;20867;-56
2023/11/28 16:47:44;;;;;;;5.95;1.80;;;16.30;62.40;;;;;;10385506;28;20029;-57
2023/11/28 16:52:45;;;;;;;3.60;1.20;;;16.30;64.00;;;;;;10390049;28;20249;-57
2023/11/28 16:57:46;;;;;;;4.07;1.65;;;16.30;63.50;;;;;;10392459;28;20079;-57
2023/11/28 17:02:47;;;;;;;4.55;1.60;;;16.40;63.40;;;;;;10380401;28;20091;-57
2023/11/28 17:07:48;;;;;;;5.05;1.90;;;16.40;62.30;;;;;;10388092;28;20028;-57
2023/11/28 17:12:50;;;;;;;3.65;2.35;;;16.40;63.40;;;;;;10378702;28;20030;-57
2023/11/28 17:17:51;;;;;;;3.30;2.05;;;16.40;62.20;;;;;;10385865;28;20025;-57
2023/11/28 17:22:52;;;;;;;3.67;1.70;;;16.30;63.90;;;;;;10395515;28;20607;-57
2023/11/28 17:27:53;;;;;;;9.88;2.35;;;16.30;63.80;;;;;;10401060;28;20049;-57
2023/11/28 17:32:53;;;;;;;30.30;12.45;;;16.40;61.30;;;;;;10395961;28;20037;-55
2023/11/28 17:37:55;;;;;;;20.48;10.00;;;16.80;65.70;;;;;;10394129;28;20022;-56
2023/11/28 17:42:55;;;;;;;23.30;9.60;;;16.80;66.90;;;;;;10386845;28;20050;-55
2023/11/28 17:47:57;;;;;;;13.57;7.65;;;16.70;66.90;;;;;;10406144;28;20072;-60
2023/11/28 17:52:57;;;;;;;13.63;6.45;;;16.50;65.90;;;;;;10407532;28;20037;-59
2023/11/28 17:57:58;;;;;;;20.88;7.28;;;16.30;65.10;;;;;;10398337;28;20045;-60
2023/11/28 18:02:59;;;;;;;14.82;5.72;;;16.30;64.20;;;;;;10388946;28;20034;-55
2023/11/28 18:08:00;;;;;;;14.63;5.68;;;16.40;62.70;;;;;;10401633;28;20396;-53
2023/11/28 18:13:02;;;;;;;34.58;8.13;;;16.30;61.90;;;;;;10407070;28;20033;-55
2023/11/28 18:18:03;;;;;;;19.90;7.20;;;16.50;63.90;;;;;;10412665;28;20018;-54
2023/11/28 18:23:03;;;;;;;21.25;5.97;;;16.60;61.10;;;;;;10396080;28;20033;-54
2023/11/28 18:28:04;;;;;;;22.38;5.47;;;16.70;61.30;;;;;;10371955;28;20125;-56
2023/11/28 18:33:05;;;;;;;15.32;5.15;;;16.50;61.20;;;;;;10387877;28;20029;-55
2023/11/28 18:38:06;;;;;;;14.68;4.55;;;16.50;61.60;;;;;;10406138;28;20042;-54
2023/11/28 18:43:10;;;;;;;17.60;4.25;;;16.50;63.20;;;;;;10404632;28;20037;-57
2023/11/28 18:48:11;;;;;;;10.10;3.83;;;16.40;62.00;;;;;;10412552;28;20029;-56
2023/11/28 18:53:12;;;;;;;14.25;4.25;;;16.30;62.50;;;;;;10413013;28;20049;-57
2023/11/28 18:58:14;;;;;;;9.70;3.60;;;16.30;61.50;;;;;;10377632;28;20037;-55
2023/11/28 19:03:15;;;;;;;14.88;4.43;;;16.40;61.60;;;;;;10371733;28;20108;-57
2023/11/28 19:08:17;;;;;;;18.38;4.22;;;16.50;62.10;;;;;;10385551;28;20041;-54
2023/11/28 19:13:17;;;;;;;11.75;4.93;;;16.60;62.20;;;;;;10391881;28;20037;-56
2023/11/28 19:18:18;;;;;;;8.13;3.47;;;16.70;62.60;;;;;;10381069;28;20029;-56
2023/11/28 19:23:19;;;;;;;6.15;3.47;;;16.60;62.80;;;;;;10385293;28;20502;-56
2023/11/28 19:28:21;;;;;;;10.38;3.00;;;16.60;63.00;;;;;;10383054;28;20072;-55
2023/11/28 19:33:22;;;;;;;7.72;2.58;;;16.60;63.40;;;;;;10394253;28;20032;-56
2023/11/28 19:38:22;;;;;;;7.75;2.80;;;16.60;63.60;;;;;;10388645;28;20025;-55
2023/11/28 19:43:23;;;;;;;9.55;2.92;;;16.60;63.70;;;;;;10394296;28;20440;-58
2023/11/28 19:48:24;;;;;;;12.43;3.17;;;16.50;63.90;;;;;;10392540;28;20537;-57
2023/11/28 19:53:25;;;;;;;8.60;2.85;;;16.60;64.10;;;;;;10386609;28;20053;-57
2023/11/28 19:58:27;;;;;;;6.68;2.58;;;16.50;64.00;;;;;;10388272;28;20090;-57
2023/11/28 20:03:28;;;;;;;8.63;2.75;;;16.60;64.60;;;;;;10387556;28;20538;-57
2023/11/28 20:08:29;;;;;;;6.93;2.40;;;16.60;64.10;;;;;;10387238;28;20026;-57
2023/11/28 20:13:30;;;;;;;4.43;2.20;;;16.60;64.20;;;;;;10386252;28;20033;-56
2023/11/28 20:18:31;;;;;;;5.80;2.20;;;16.50;64.60;;;;;;10375366;28;20034;-56
2023/11/28 20:23:31;;;;;;;7.97;3.20;;;16.40;64.90;;;;;;10386322;28;20026;-56
2023/11/28 20:28:33;;;;;;;9.52;3.10;;;16.50;65.00;;;;;;10395166;28;20041;-55
2023/11/28 20:33:33;;;;;;;4.38;2.70;;;16.40;65.20;;;;;;10389741;28;20061;-56
2023/11/28 20:38:34;;;;;;;4.47;2.50;;;16.40;65.20;;;;;;10389008;28;20043;-55
2023/11/28 20:43:36;;;;;;;5.18;2.53;;;16.30;65.50;;;;;;10381820;28;20072;-56
2023/11/28 20:48:36;;;;;;;5.47;2.47;;;16.20;66.30;;;;;;10365298;28;20045;-49
2023/11/28 20:53:38;;;;;;;8.10;3.28;;;16.10;66.00;;;;;;10377224;28;20139;-57
2023/11/28 20:58:38;;;;;;;5.53;2.70;;;16.00;66.10;;;;;;10371548;28;20026;-57
2023/11/28 21:03:39;;;;;;;4.47;2.63;;;15.90;66.20;;;;;;10384388;28;20030;-57
2023/11/28 21:08:40;;;;;;;4.55;2.70;;;15.90;67.00;;;;;;10408405;28;20500;-57
2023/11/28 21:13:41;;;;;;;4.85;2.83;;;15.80;66.50;;;;;;10406682;28;20128;-57
2023/11/28 21:18:44;;;;;;;5.38;3.30;;;15.80;66.60;;;;;;10393949;28;20021;-57
2023/11/28 21:23:44;;;;;;;5.90;3.05;;;15.70;66.60;;;;;;10403296;28;20428;-58
2023/11/28 21:28:45;;;;;;;4.55;2.90;;;15.70;66.70;;;;;;10368394;28;20049;-57
2023/11/28 21:33:46;;;;;;;4.93;2.97;;;15.60;66.70;;;;;;10380967;28;20121;-57
2023/11/28 21:38:47;;;;;;;3.95;2.20;;;15.60;66.80;;;;;;10367121;28;20149;-57
2023/11/28 21:43:48;;;;;;;5.60;2.58;;;15.60;66.80;;;;;;10388639;28;20039;-58
2023/11/28 21:48:49;;;;;;;3.88;2.45;;;15.50;66.80;;;;;;10408641;28;20479;-57
2023/11/28 21:53:49;;;;;;;3.58;2.33;;;15.50;66.80;;;;;;10415198;28;20160;-58
2023/11/28 21:58:51;;;;;;;3.08;2.13;;;15.40;66.80;;;;;;10415187;28;20025;-57
2023/11/28 22:03:51;;;;;;;4.93;2.33;;;15.40;66.80;;;;;;10414986;28;20057;-57
2023/11/28 22:08:52;;;;;;;5.05;2.75;;;15.40;66.70;;;;;;10414869;28;20037;-56
2023/11/28 22:13:53;;;;;;;5.72;2.10;;;15.40;66.70;;;;;;10414098;28;20032;-57
2023/11/28 22:18:53;;;;;;;3.85;3.30;;;15.30;66.80;;;;;;10414587;28;20388;-57
2023/11/28 22:23:55;;;;;;;4.93;2.05;;;15.30;66.70;;;;;;10414324;28;20417;-57
2023/11/28 22:28:56;;;;;;;3.97;1.73;;;15.30;66.80;;;;;;10416581;28;20033;-57
2023/11/28 22:33:57;;;;;;;3.08;1.95;;;15.30;66.70;;;;;;10392288;28;20030;-57
2023/11/28 22:38:57;;;;;;;2.85;1.88;;;15.30;66.60;;;;;;10371806;28;20030;-57
2023/11/28 22:43:58;;;;;;;4.07;1.98;;;15.20;66.40;;;;;;10405910;28;20043;-57
2023/11/28 22:48:59;;;;;;;2.83;1.52;;;15.20;66.60;;;;;;10383694;28;20515;-57
2023/11/28 22:54:00;;;;;;;2.85;1.67;;;15.20;66.50;;;;;;10385141;28;20599;-57
2023/11/28 22:59:01;;;;;;;2.65;1.83;;;15.20;66.50;;;;;;10412711;28;20033;-57
2023/11/28 23:04:02;;;;;;;2.35;1.52;;;15.10;66.40;;;;;;10412561;28;20173;-58
2023/11/28 23:09:03;;;;;;;4.07;1.90;;;15.10;66.40;;;;;;10412593;28;20556;-57
2023/11/28 23:14:04;;;;;;;4.03;2.08;;;15.10;66.40;;;;;;10410659;28;20071;-56
2023/11/28 23:19:05;;;;;;;3.17;1.58;;;15.10;66.40;;;;;;10412249;28;20022;-56
2023/11/28 23:24:13;;;;;;;4.43;2.03;;;15.00;66.50;;;;;;10411601;28;20528;-56
2023/11/28 23:29:14;;;;;;;2.55;1.42;;;15.00;66.40;;;;;;10415314;28;20625;-57
2023/11/28 23:34:15;;;;;;;3.30;1.85;;;15.00;66.60;;;;;;10399899;28;20437;-57
2023/11/28 23:39:20;;;;;;;1.75;1.33;;;15.00;66.60;;;;;;10411586;28;20064;-57
2023/11/28 23:44:21;;;;;;;2.35;1.40;;;15.00;67.20;;;;;;10408714;28;20037;-57
2023/11/28 23:49:21;;;;;;;2.72;1.55;;;15.00;66.70;;;;;;10396435;28;20604;-57
2023/11/28 23:54:22;;;;;;;2.88;1.50;;;15.00;66.70;;;;;;10409057;28;20402;-57
2023/11/28 23:59:23;;;;;;;2.25;1.30;;;15.00;66.70;;;;;;10370788;28;20028;-57
